Playa Vista, California
Current Conditions -  °F | °C
As of 12:53 PM on Friday 24 Oct 2014 (Local Time) from KLAX Reporting Station
Clear Clear  
Wind Chill: 76°   Ceiling: Unl
Heat Index: 76°   Visibility: 8mi
Dew Point: 59°   Wind: 9mph
Humidity: 56%   Direction: 270°W
Pressure: 29.96"   Gusts: NA
Location:  33.9534°N, 118.399°W
Report Text: KLAX 241953Z 27008KT 8SM CLR 24/15 A2996 RMK AO2 SLP145 T02440150 $
Loading
Personal Weather Stations






























Interactive Weather Map
Tropical Storm Tracking
New forecast layout! Learn more

10-Day Weather Forecast

Advertisements
Track Severe Weather on mobile